Time;durP1;ratioP1;P1;durP2;ratioP2;P2;SDS_P1;SDS_P2;PMS_P1;PMS_P2;Temp;Humidity;BMP_temperature;BMP_pressure;BME280_temperature;BME280_humidity;BME280_pressure;Samples;Min_cycle;Max_cycle;Signal;HPM_P1;HPM_P2
2023/05/15 00:00:20;;;;;;;;;;;;;;;24.62;37.64;97538.03;5055792;28;19924;-86
2023/05/15 00:02:46;;;;;;;;;;;;;;;24.69;37.99;97546.22;5068768;28;20028;-87
2023/05/15 00:05:12;;;;;;;;;;;;;;;25.35;35.94;97541.59;5065150;28;19920;-87
2023/05/15 00:07:39;;;;;;;;;;;;;;;25.30;36.27;97531.72;5056180;28;19930;-86
2023/05/15 00:10:06;;;;;;;;;;;;;;;26.02;34.77;97525.84;5060851;28;19929;-86
2023/05/15 00:12:32;;;;;;;;;;;;;;;24.82;36.84;97532.22;5064034;28;20011;-86
2023/05/15 00:14:58;;;;;;;;;;;;;;;25.62;35.51;97533.41;5072917;28;19920;-87
2023/05/15 00:17:24;;;;;;;;;;;;;;;25.93;34.40;97528.59;5083608;28;20419;-86
2023/05/15 00:19:50;;;;;;;;;;;;;;;25.49;36.08;97520.66;5071678;28;20291;-86
2023/05/15 00:22:16;;;;;;;;;;;;;;;25.55;35.76;97525.25;5073416;28;19920;-86
2023/05/15 00:24:42;;;;;;;;;;;;;;;25.34;36.17;97521.13;5070604;28;19944;-86
2023/05/15 00:27:08;;;;;;;;;;;;;;;25.68;35.21;97513.91;5078298;28;19920;-86
2023/05/15 00:29:34;;;;;;;;;;;;;;;25.15;36.08;97505.38;5078238;28;19950;-86
2023/05/15 00:32:00;;;;;;;;;;;;;;;23.63;41.19;97509.44;5080101;28;19929;-86
2023/05/15 00:34:26;;;;;;;;;;;;;;;25.32;36.36;97500.38;5076459;28;19920;-87
2023/05/15 00:36:52;;;;;;;;;;;;;;;25.70;35.87;97500.19;5071337;28;20670;-86
2023/05/15 00:39:18;;;;;;;;;;;;;;;25.38;35.98;97496.50;5081020;28;20332;-86
2023/05/15 00:41:46;;;;;;;;;;;;;;;26.37;34.03;97489.16;5086967;28;19927;-87
2023/05/15 00:44:12;;;;;;;;;;;;;;;26.23;35.07;97493.31;5093719;28;19916;-87
2023/05/15 00:46:38;;;;;;;;;;;;;;;26.16;34.62;97490.78;5076031;28;20396;-87
2023/05/15 00:49:05;;;;;;;;;;;;;;;26.36;34.12;97482.72;5074367;28;20402;-87
2023/05/15 00:51:31;;;;;;;;;;;;;;;25.35;36.04;97477.75;5076831;28;20049;-86
2023/05/15 00:53:58;;;;;;;;;;;;;;;25.54;35.69;97473.06;5066312;28;20015;-86
2023/05/15 00:56:24;;;;;;;;;;;;;;;25.92;34.82;97475.63;5060570;28;19917;-87
2023/05/15 00:58:51;;;;;;;;;;;;;;;25.79;35.41;97472.13;5071236;28;20330;-87
2023/05/15 01:01:17;;;;;;;;;;;;;;;25.71;35.93;97468.03;5073524;28;20343;-86
2023/05/15 01:03:43;;;;;;;;;;;;;;;25.94;34.94;97457.06;5072590;28;20388;-86
2023/05/15 01:06:09;;;;;;;;;;;;;;;25.76;35.30;97456.19;5068630;28;20042;-86
2023/05/15 01:08:45;;;;;;;;;;;;;;;26.38;33.95;97456.94;5065977;28;20012;-87
2023/05/15 01:11:12;;;;;;;;;;;;;;;25.94;35.20;97459.06;5059583;28;19932;-86
2023/05/15 01:13:38;;;;;;;;;;;;;;;26.77;33.39;97470.19;5073248;28;19917;-87
2023/05/15 01:16:05;;;;;;;;;;;;;;;27.16;32.63;97469.31;5071692;28;19920;-87
2023/05/15 01:18:31;;;;;;;;;;;;;;;26.65;33.45;97471.84;5057919;28;20019;-87
2023/05/15 01:21:00;;;;;;;;;;;;;;;26.81;33.45;97462.38;5067379;28;19928;-87
2023/05/15 01:23:37;;;;;;;;;;;;;;;26.93;33.46;97461.47;5049946;28;20273;-87
2023/05/15 01:26:22;;;;;;;;;;;;;;;26.83;33.21;97450.63;5065775;28;19917;-86
2023/05/15 01:28:54;;;;;;;;;;;;;;;26.93;33.28;97452.22;5050368;28;20296;-87
2023/05/15 01:31:21;;;;;;;;;;;;;;;26.90;33.26;97456.75;5054253;28;19924;-87
2023/05/15 01:33:53;;;;;;;;;;;;;;;26.02;34.86;97466.00;5078681;28;19916;-85
2023/05/15 01:36:25;;;;;;;;;;;;;;;26.50;33.76;97456.81;5083103;28;19978;-87
2023/05/15 01:38:52;;;;;;;;;;;;;;;26.71;33.45;97453.09;5087232;28;20339;-88
2023/05/15 01:41:21;;;;;;;;;;;;;;;25.71;35.90;97442.72;5064079;28;19924;-86
2023/05/15 01:43:51;;;;;;;;;;;;;;;25.28;37.49;97437.88;5070868;28;20019;-86
2023/05/15 01:46:19;;;;;;;;;;;;;;;25.48;36.73;97446.81;5064176;28;19975;-87
2023/05/15 01:48:45;;;;;;;;;;;;;;;26.13;34.88;97443.88;5061992;28;19959;-86
2023/05/15 01:51:12;;;;;;;;;;;;;;;26.70;33.95;97437.44;5032198;28;20292;-87
2023/05/15 01:53:39;;;;;;;;;;;;;;;26.84;33.66;97432.50;5087525;28;19926;-87
2023/05/15 01:56:07;;;;;;;;;;;;;;;26.92;33.10;97431.72;5071002;28;19929;-87
2023/05/15 01:58:33;;;;;;;;;;;;;;;26.53;33.96;97430.56;5051863;28;19920;-87
2023/05/15 02:01:00;;;;;;;;;;;;;;;26.53;33.87;97424.91;5061707;28;20277;-87
2023/05/15 02:03:26;;;;;;;;;;;;;;;26.34;34.66;97423.31;5062389;28;19924;-87
2023/05/15 02:05:55;;;;;;;;;;;;;;;26.57;33.91;97414.28;5071172;28;19952;-87
2023/05/15 02:08:22;;;;;;;;;;;;;;;26.24;34.83;97410.44;5071100;28;19978;-86
2023/05/15 02:10:48;;;;;;;;;;;;;;;26.35;34.07;97410.78;5067483;28;19928;-87
2023/05/15 02:13:14;;;;;;;;;;;;;;;26.32;34.50;97394.06;5074885;28;20269;-86
2023/05/15 02:15:40;;;;;;;;;;;;;;;26.05;35.17;97391.91;5071093;28;20407;-86
2023/05/15 02:18:06;;;;;;;;;;;;;;;25.71;35.64;97398.50;5074968;28;19924;-87
2023/05/15 02:20:32;;;;;;;;;;;;;;;26.09;34.72;97390.50;5073039;28;19962;-86
2023/05/15 02:22:58;;;;;;;;;;;;;;;25.48;36.90;97389.78;5074636;28;19924;-87
2023/05/15 02:25:31;;;;;;;;;;;;;;;25.94;35.29;97383.13;5056566;28;19942;-87
2023/05/15 02:27:58;;;;;;;;;;;;;;;26.56;34.54;97378.13;5066631;28;20387;-87
2023/05/15 02:30:25;;;;;;;;;;;;;;;26.80;33.82;97372.69;5052657;28;19975;-87
2023/05/15 02:32:54;;;;;;;;;;;;;;;26.75;33.58;97368.47;5055914;28;20398;-87
2023/05/15 02:35:38;;;;;;;;;;;;;;;26.31;34.95;97376.38;5054814;28;20333;-87
2023/05/15 02:38:07;;;;;;;;;;;;;;;26.18;35.21;97375.75;5064903;28;19924;-87
2023/05/15 02:40:35;;;;;;;;;;;;;;;26.79;33.52;97374.75;5070876;28;19916;-87
2023/05/15 02:43:01;;;;;;;;;;;;;;;27.03;33.64;97366.44;5056024;28;19960;-86
2023/05/15 02:45:28;;;;;;;;;;;;;;;27.48;32.70;97368.41;5062519;28;19920;-88
2023/05/15 02:47:54;;;;;;;;;;;;;;;27.28;32.79;97360.47;5063907;28;19921;-88
2023/05/15 02:50:20;;;;;;;;;;;;;;;27.08;33.43;97366.59;5059376;28;19921;-87
2023/05/15 02:52:46;;;;;;;;;;;;;;;27.01;33.58;97361.28;5056753;28;20273;-87
2023/05/15 02:55:12;;;;;;;;;;;;;;;27.09;33.56;97358.91;5084864;28;19920;-88
2023/05/15 02:57:38;;;;;;;;;;;;;;;26.92;33.43;97368.94;5079720;28;20498;-87
2023/05/15 03:00:07;;;;;;;;;;;;;;;27.28;33.14;97366.09;5059546;28;20023;-88
2023/05/15 03:02:33;;;;;;;;;;;;;;;27.14;33.08;97361.88;5065593;28;19966;-87
2023/05/15 03:04:59;;;;;;;;;;;;;;;26.67;33.98;97356.72;5048840;28;19928;-87
2023/05/15 03:07:26;;;;;;;;;;;;;;;26.56;34.29;97359.22;5074002;28;19928;-87
2023/05/15 03:09:52;;;;;;;;;;;;;;;26.90;33.79;97360.19;5068695;28;20394;-88
2023/05/15 03:12:18;;;;;;;;;;;;;;;26.95;33.84;97360.34;5075025;28;20019;-87
2023/05/15 03:14:44;;;;;;;;;;;;;;;26.20;34.96;97364.78;5064652;28;20011;-87
2023/05/15 03:17:10;;;;;;;;;;;;;;;27.03;33.29;97361.56;5064374;28;19924;-87
2023/05/15 03:19:36;;;;;;;;;;;;;;;27.24;32.98;97351.38;5086567;28;20450;-87
2023/05/15 03:22:02;;;;;;;;;;;;;;;27.18;32.84;97362.50;5081131;28;19966;-88
2023/05/15 03:24:28;;;;;;;;;;;;;;;27.07;33.24;97370.66;5095205;28;19916;-88
2023/05/15 03:26:54;;;;;;;;;;;;;;;27.17;33.34;97362.97;5056425;28;19921;-87
2023/05/15 03:29:20;;;;;;;;;;;;;;;27.25;32.80;97365.00;5081640;28;19931;-87
2023/05/15 03:31:46;;;;;;;;;;;;;;;26.87;33.31;97358.31;5072305;28;19920;-87
2023/05/15 03:34:12;;;;;;;;;;;;;;;27.07;33.65;97350.16;5064209;28;19925;-88
2023/05/15 03:36:38;;;;;;;;;;;;;;;27.26;33.17;97349.63;5074082;28;19921;-87
2023/05/15 03:39:04;;;;;;;;;;;;;;;27.56;32.38;97347.88;5070478;28;19921;-87
2023/05/15 03:41:30;;;;;;;;;;;;;;;27.55;32.52;97345.50;5074399;28;19927;-87
2023/05/15 03:43:56;;;;;;;;;;;;;;;27.58;32.40;97339.72;5066437;28;20284;-88
2023/05/15 03:46:22;;;;;;;;;;;;;;;27.76;32.04;97336.81;5055789;28;19920;-87
2023/05/15 03:48:48;;;;;;;;;;;;;;;27.68;32.28;97329.94;5070467;28;19974;-87
2023/05/15 03:51:14;;;;;;;;;;;;;;;27.72;32.36;97329.78;5068355;28;19917;-87
2023/05/15 03:53:40;;;;;;;;;;;;;;;27.58;32.79;97325.63;5068429;28;19930;-87
2023/05/15 03:56:06;;;;;;;;;;;;;;;27.87;32.46;97331.44;5068414;28;19921;-88
2023/05/15 03:58:32;;;;;;;;;;;;;;;27.61;32.85;97324.66;5069975;28;20681;-87
2023/05/15 04:00:58;;;;;;;;;;;;;;;28.03;32.06;97316.16;5053358;28;19951;-87
2023/05/15 04:03:24;;;;;;;;;;;;;;;28.19;31.81;97317.81;5067404;28;19927;-87
2023/05/15 04:05:50;;;;;;;;;;;;;;;28.27;31.67;97313.34;5073413;28;19925;-88
2023/05/15 04:08:17;;;;;;;;;;;;;;;28.21;31.96;97316.06;5082420;28;19970;-87
2023/05/15 04:10:43;;;;;;;;;;;;;;;28.27;32.27;97313.34;5057568;28;20303;-88
2023/05/15 04:13:09;;;;;;;;;;;;;;;28.67;31.30;97311.66;5065304;28;19928;-88
2023/05/15 04:15:35;;;;;;;;;;;;;;;28.27;32.10;97319.00;5072881;28;19920;-88
2023/05/15 04:18:01;;;;;;;;;;;;;;;28.37;32.59;97309.22;5066876;28;19928;-88
2023/05/15 04:20:27;;;;;;;;;;;;;;;28.52;32.17;97298.75;5049549;28;20019;-89
2023/05/15 04:22:53;;;;;;;;;;;;;;;28.42;31.92;97298.03;5050745;28;19921;-89
2023/05/15 04:25:19;;;;;;;;;;;;;;;28.32;32.55;97295.75;5073519;28;20412;-89
2023/05/15 04:27:45;;;;;;;;;;;;;;;28.84;31.35;97286.56;5069066;28;20384;-88
2023/05/15 04:30:12;;;;;;;;;;;;;;;28.78;31.36;97276.44;5072515;28;19927;-89
2023/05/15 04:32:38;;;;;;;;;;;;;;;28.69;31.53;97283.72;5067907;28;19926;-87
2023/05/15 04:35:05;;;;;;;;;;;;;;;28.70;31.82;97273.19;5064257;28;19920;-87
2023/05/15 04:37:31;;;;;;;;;;;;;;;29.03;31.48;97267.38;5073805;28;19931;-87
2023/05/15 04:39:57;;;;;;;;;;;;;;;29.09;30.67;97262.59;5059396;28;20002;-87
2023/05/15 04:42:23;;;;;;;;;;;;;;;28.88;31.43;97256.06;5070348;28;20405;-87
2023/05/15 04:44:49;;;;;;;;;;;;;;;28.70;32.60;97273.19;5066026;28;19929;-88
2023/05/15 04:47:15;;;;;;;;;;;;;;;28.97;32.17;97260.81;5068343;28;19927;-89
2023/05/15 04:49:41;;;;;;;;;;;;;;;29.09;32.73;97276.72;5055688;28;19921;-87
2023/05/15 04:52:08;;;;;;;;;;;;;;;29.65;31.63;97267.91;5062295;28;19936;-87
2023/05/15 04:54:34;;;;;;;;;;;;;;;29.41;32.35;97267.25;5048671;28;19933;-85
2023/05/15 04:57:00;;;;;;;;;;;;;;;29.48;32.48;97274.59;5055060;28;20392;-85
2023/05/15 04:59:29;;;;;;;;;;;;;;;29.43;31.50;97278.84;5076206;28;20020;-89
2023/05/15 05:01:55;;;;;;;;;;;;;;;29.47;32.11;97273.81;5047843;28;19931;-87
2023/05/15 05:04:22;;;;;;;;;;;;;;;29.41;32.43;97272.91;5072088;28;19917;-87
2023/05/15 05:06:48;;;;;;;;;;;;;;;29.70;32.07;97283.41;5052974;28;19923;-87
2023/05/15 05:09:14;;;;;;;;;;;;;;;29.91;32.22;97285.81;5072365;28;20000;-87
2023/05/15 05:11:43;;;;;;;;;;;;;;;29.70;31.38;97286.22;5073039;28;19939;-87
2023/05/15 05:14:10;;;;;;;;;;;;;;;29.20;35.20;97274.88;5072103;28;19916;-86
2023/05/15 05:16:36;;;;;;;;;;;;;;;29.23;31.67;97273.13;5073112;28;19960;-88
2023/05/15 05:19:02;;;;;;;;;;;;;;;28.45;31.86;97265.22;5073223;28;19916;-87
2023/05/15 05:21:28;;;;;;;;;;;;;;;28.88;31.76;97267.34;5073879;28;19923;-87
2023/05/15 05:23:55;;;;;;;;;;;;;;;29.34;31.74;97278.97;5072203;28;19924;-87
2023/05/15 05:26:21;;;;;;;;;;;;;;;29.78;30.75;97288.19;5072941;28;19920;-87
2023/05/15 05:28:47;;;;;;;;;;;;;;;29.91;30.58;97285.03;5073472;28;19917;-87
2023/05/15 05:31:13;;;;;;;;;;;;;;;29.90;30.38;97294.78;5073279;28;20315;-87
2023/05/15 05:33:39;;;;;;;;;;;;;;;29.93;29.95;97285.31;5073461;28;19920;-87
2023/05/15 05:36:05;;;;;;;;;;;;;;;29.81;30.00;97289.25;5055926;28;20257;-87
2023/05/15 05:38:32;;;;;;;;;;;;;;;29.59;30.60;97286.06;5073296;28;19925;-87
2023/05/15 05:41:00;;;;;;;;;;;;;;;29.55;30.24;97302.44;5073755;28;19922;-87
2023/05/15 05:43:26;;;;;;;;;;;;;;;29.74;30.47;97309.44;5073162;28;19924;-86
2023/05/15 05:45:52;;;;;;;;;;;;;;;29.86;30.08;97294.22;5068709;28;20339;-86
2023/05/15 05:48:18;;;;;;;;;;;;;;;30.13;29.41;97287.41;5063208;28;19959;-86
2023/05/15 05:50:44;;;;;;;;;;;;;;;30.21;28.95;97280.81;5077113;28;20021;-86
2023/05/15 05:53:10;;;;;;;;;;;;;;;29.62;30.14;97270.91;5074176;28;19917;-86
2023/05/15 05:55:36;;;;;;;;;;;;;;;29.39;30.81;97267.75;5073916;28;20296;-86
2023/05/15 05:58:03;;;;;;;;;;;;;;;29.25;31.09;97274.22;5077043;28;19923;-86
2023/05/15 06:00:29;;;;;;;;;;;;;;;29.37;31.46;97272.34;5052671;28;19913;-85
2023/05/15 06:02:56;;;;;;;;;;;;;;;29.46;30.64;97263.75;5057005;28;19917;-85
2023/05/15 06:05:22;;;;;;;;;;;;;;;29.42;30.85;97247.00;5066289;28;20375;-85
2023/05/15 06:07:48;;;;;;;;;;;;;;;29.07;31.85;97234.81;5076333;28;19924;-85
2023/05/15 06:10:14;;;;;;;;;;;;;;;29.11;31.45;97223.28;5076792;28;19940;-85
2023/05/15 06:12:40;;;;;;;;;;;;;;;28.74;32.13;97218.06;5076917;28;19959;-85
2023/05/15 06:15:07;;;;;;;;;;;;;;;28.41;32.91;97225.06;5076726;28;19917;-85
2023/05/15 06:17:33;;;;;;;;;;;;;;;28.49;32.88;97229.88;5076822;28;20011;-85
2023/05/15 06:19:59;;;;;;;;;;;;;;;28.81;32.41;97236.66;5076730;28;19913;-85
2023/05/15 06:22:25;;;;;;;;;;;;;;;29.24;31.87;97232.28;5076286;28;19924;-85
2023/05/15 06:24:51;;;;;;;;;;;;;;;29.32;31.41;97222.13;5076838;28;19965;-85
2023/05/15 06:27:17;;;;;;;;;;;;;;;29.03;32.79;97217.28;5076490;28;19916;-85
2023/05/15 06:29:43;;;;;;;;;;;;;;;29.24;31.72;97218.91;5076736;28;19917;-85
2023/05/15 06:32:09;;;;;;;;;;;;;;;29.32;32.02;97220.09;5076338;28;19912;-85
2023/05/15 06:34:35;;;;;;;;;;;;;;;29.23;32.29;97223.03;5076536;28;19917;-83
2023/05/15 06:37:01;;;;;;;;;;;;;;;29.60;30.99;97214.06;5065596;28;20344;-83
2023/05/15 06:39:27;;;;;;;;;;;;;;;29.52;31.38;97215.75;5069892;28;19999;-85
2023/05/15 06:41:56;;;;;;;;;;;;;;;29.42;33.22;97212.25;5047742;28;20011;-85
2023/05/15 06:44:22;;;;;;;;;;;;;;;29.84;32.93;97203.38;5075951;28;19970;-85
2023/05/15 06:46:48;;;;;;;;;;;;;;;30.07;32.47;97205.22;5063352;28;19920;-85
2023/05/15 06:49:14;;;;;;;;;;;;;;;30.22;32.27;97205.94;5073693;28;19916;-85
2023/05/15 06:51:40;;;;;;;;;;;;;;;30.55;30.19;97205.56;5076154;28;19917;-86
2023/05/15 06:54:06;;;;;;;;;;;;;;;30.31;31.57;97211.44;5075962;28;20376;-85
2023/05/15 06:56:32;;;;;;;;;;;;;;;30.69;30.06;97211.09;5073122;28;19963;-85
2023/05/15 06:58:58;;;;;;;;;;;;;;;30.44;30.05;97211.06;5056195;28;19921;-86
2023/05/15 07:01:24;;;;;;;;;;;;;;;30.28;31.30;97205.97;5073635;28;19986;-84
2023/05/15 07:03:50;;;;;;;;;;;;;;;29.47;32.18;97213.63;5075872;28;19923;-84
2023/05/15 07:06:16;;;;;;;;;;;;;;;29.73;32.79;97209.63;5075930;28;19975;-84
2023/05/15 07:08:42;;;;;;;;;;;;;;;30.09;31.73;97206.28;5075682;28;20360;-84
2023/05/15 07:11:09;;;;;;;;;;;;;;;30.71;30.40;97207.78;5075795;28;19916;-84
2023/05/15 07:13:35;;;;;;;;;;;;;;;30.49;31.07;97205.47;5076005;28;20027;-84
2023/05/15 07:16:01;;;;;;;;;;;;;;;30.43;31.99;97209.53;5075781;28;19923;-86
2023/05/15 07:18:27;;;;;;;;;;;;;;;30.87;31.88;97217.72;5075807;28;19967;-86
2023/05/15 07:20:53;;;;;;;;;;;;;;;31.12;29.69;97214.09;5075705;28;19912;-84
2023/05/15 07:23:19;;;;;;;;;;;;;;;31.01;30.95;97209.13;5075587;28;19925;-84
2023/05/15 07:25:45;;;;;;;;;;;;;;;30.88;33.41;97219.28;5075327;28;19935;-84
2023/05/15 07:28:11;;;;;;;;;;;;;;;31.56;30.15;97213.66;5075376;28;19991;-84
2023/05/15 07:30:37;;;;;;;;;;;;;;;31.42;32.48;97215.34;5056525;28;19921;-84
2023/05/15 07:33:03;;;;;;;;;;;;;;;32.02;32.01;97217.84;5075146;28;20292;-84
2023/05/15 07:35:30;;;;;;;;;;;;;;;32.54;30.21;97223.25;5061532;28;19929;-83
2023/05/15 07:37:56;;;;;;;;;;;;;;;32.80;30.02;97220.97;5052885;28;19929;-84
2023/05/15 07:40:22;;;;;;;;;;;;;;;32.67;29.26;97215.78;5075006;28;19923;-84
2023/05/15 07:42:48;;;;;;;;;;;;;;;32.35;31.25;97225.72;5075131;28;20011;-84
2023/05/15 07:45:14;;;;;;;;;;;;;;;32.49;31.38;97221.94;5075133;28;19923;-84
2023/05/15 07:47:47;;;;;;;;;;;;;;;32.79;30.59;97216.59;5074213;28;19929;-84
2023/05/15 07:50:13;;;;;;;;;;;;;;;33.00;29.02;97217.88;5074876;28;19920;-84
2023/05/15 07:52:40;;;;;;;;;;;;;;;33.06;29.24;97212.25;5075122;28;20011;-84
2023/05/15 07:55:06;;;;;;;;;;;;;;;33.21;29.52;97230.59;5074483;28;19939;-84
2023/05/15 07:57:32;;;;;;;;;;;;;;;33.32;29.35;97227.00;5054143;28;19952;-85
2023/05/15 07:59:58;;;;;;;;;;;;;;;33.31;29.56;97236.81;5054717;28;20368;-84
2023/05/15 08:02:24;;;;;;;;;;;;;;;33.37;31.03;97232.66;5054682;28;19924;-84
2023/05/15 08:04:51;;;;;;;;;;;;;;;33.23;30.08;97238.66;5066850;28;19920;-84
2023/05/15 08:07:17;;;;;;;;;;;;;;;32.80;30.62;97240.88;5074520;28;19924;-84
2023/05/15 08:09:43;;;;;;;;;;;;;;;32.73;29.71;97235.69;5074218;28;20287;-84
2023/05/15 08:12:19;;;;;;;;;;;;;;;32.52;30.45;97237.19;5074662;28;19917;-84
2023/05/15 08:14:47;;;;;;;;;;;;;;;32.60;29.88;97238.25;5074224;28;19924;-84
2023/05/15 08:17:12;;;;;;;;;;;;;;;32.37;29.46;97239.44;5074464;28;19923;-84
2023/05/15 08:19:38;;;;;;;;;;;;;;;32.28;31.37;97242.50;5074311;28;20280;-84
2023/05/15 08:22:04;;;;;;;;;;;;;;;32.37;30.52;97223.16;5074156;28;19924;-83
2023/05/15 08:24:30;;;;;;;;;;;;;;;32.60;30.17;97229.72;5074034;28;19921;-83
2023/05/15 08:26:57;;;;;;;;;;;;;;;32.64;29.40;97228.19;5056209;28;20368;-83
2023/05/15 08:29:23;;;;;;;;;;;;;;;32.48;29.85;97236.63;5072347;28;19952;-83
2023/05/15 08:31:49;;;;;;;;;;;;;;;32.71;28.28;97235.44;5073100;28;19935;-83
2023/05/15 08:34:15;;;;;;;;;;;;;;;32.36;28.66;97243.56;5074037;28;19921;-83
2023/05/15 08:36:41;;;;;;;;;;;;;;;32.49;30.17;97246.69;5069886;28;19923;-83
2023/05/15 08:39:08;;;;;;;;;;;;;;;32.91;29.60;97248.69;5068311;28;20303;-83
2023/05/15 08:41:39;;;;;;;;;;;;;;;33.10;30.31;97246.91;5074098;28;20288;-83
2023/05/15 08:44:07;;;;;;;;;;;;;;;33.27;29.30;97247.69;5073944;28;19917;-83
2023/05/15 08:46:34;;;;;;;;;;;;;;;33.25;29.04;97241.75;5073500;28;19956;-83
2023/05/15 08:49:03;;;;;;;;;;;;;;;33.39;28.75;97237.88;5061228;28;19921;-83
2023/05/15 08:51:29;;;;;;;;;;;;;;;33.55;30.73;97245.66;5053678;28;19912;-83
2023/05/15 08:53:56;;;;;;;;;;;;;;;33.76;29.26;97240.44;5053739;28;19925;-83
2023/05/15 08:56:22;;;;;;;;;;;;;;;33.45;29.14;97238.63;5051789;28;20015;-83
2023/05/15 08:58:49;;;;;;;;;;;;;;;32.90;29.14;97252.78;5053399;28;20015;-83
2023/05/15 09:01:15;;;;;;;;;;;;;;;32.62;30.93;97258.41;5053748;28;19917;-83
2023/05/15 09:03:41;;;;;;;;;;;;;;;33.19;28.94;97264.50;5035643;28;20411;-84
2023/05/15 09:06:07;;;;;;;;;;;;;;;32.75;31.13;97268.00;5053330;28;19921;-84
2023/05/15 09:08:34;;;;;;;;;;;;;;;33.09;28.44;97274.59;5053351;28;19967;-84
2023/05/15 09:11:02;;;;;;;;;;;;;;;32.89;28.44;97271.91;5053742;28;19921;-84
2023/05/15 09:13:28;;;;;;;;;;;;;;;32.97;30.37;97272.19;5053920;28;20381;-84
2023/05/15 09:15:54;;;;;;;;;;;;;;;33.28;31.86;97269.94;5053379;28;19960;-84
2023/05/15 09:18:20;;;;;;;;;;;;;;;33.74;31.43;97269.44;5052997;28;20023;-84
2023/05/15 09:20:47;;;;;;;;;;;;;;;34.10;30.49;97261.88;5054564;28;19966;-84
2023/05/15 09:23:26;;;;;;;;;;;;;;;34.13;29.29;97266.53;5060036;28;19923;-84
2023/05/15 09:25:53;;;;;;;;;;;;;;;33.92;29.48;97266.03;5059856;28;19913;-84
2023/05/15 09:28:25;;;;;;;;;;;;;;;33.69;29.48;97273.06;5060223;28;19917;-84
2023/05/15 09:30:55;;;;;;;;;;;;;;;33.78;29.53;97260.63;5040276;28;19921;-84
2023/05/15 09:33:26;;;;;;;;;;;;;;;33.69;28.68;97264.53;5039928;28;19917;-83
2023/05/15 09:35:52;;;;;;;;;;;;;;;33.71;28.09;97266.84;5045106;28;20384;-83
2023/05/15 09:38:18;;;;;;;;;;;;;;;33.46;29.31;97268.66;5059858;28;19941;-83
2023/05/15 09:40:44;;;;;;;;;;;;;;;33.64;28.93;97273.84;5059812;28;19940;-83
2023/05/15 09:43:12;;;;;;;;;;;;;;;33.80;29.50;97287.28;5059415;28;20319;-83
2023/05/15 09:45:38;;;;;;;;;;;;;;;33.96;30.11;97291.41;5061473;28;19991;-83
2023/05/15 09:48:05;;;;;;;;;;;;;;;34.05;29.52;97286.22;5079742;28;19974;-83
2023/05/15 09:50:32;;;;;;;;;;;;;;;33.95;29.52;97287.00;5079801;28;20295;-83
2023/05/15 09:52:58;;;;;;;;;;;;;;;33.99;27.24;97282.59;5075204;28;19917;-83
2023/05/15 09:55:24;;;;;;;;;;;;;;;33.44;28.01;97271.25;5039831;28;20277;-83
2023/05/15 09:58:05;;;;;;;;;;;;;;;32.92;29.65;97268.06;5039747;28;20373;-83
2023/05/15 10:00:31;;;;;;;;;;;;;;;32.79;28.81;97276.31;5039969;28;19920;-82
2023/05/15 10:02:59;;;;;;;;;;;;;;;32.51;28.64;97279.03;5045837;28;19917;-83
2023/05/15 10:05:26;;;;;;;;;;;;;;;32.44;30.13;97267.38;5059653;28;19935;-83
2023/05/15 10:07:55;;;;;;;;;;;;;;;32.98;29.86;97263.16;5059270;28;19917;-83
2023/05/15 10:10:22;;;;;;;;;;;;;;;32.89;29.51;97243.47;5059731;28;19929;-83
2023/05/15 10:12:52;;;;;;;;;;;;;;;32.62;29.37;97255.56;5059620;28;19959;-83
2023/05/15 10:15:19;;;;;;;;;;;;;;;32.64;29.07;97258.69;5059501;28;19956;-83
2023/05/15 10:17:48;;;;;;;;;;;;;;;32.59;28.01;97276.50;5060049;28;20261;-81
2023/05/15 10:20:15;;;;;;;;;;;;;;;32.73;29.58;97275.50;5061322;28;19917;-84
2023/05/15 10:22:44;;;;;;;;;;;;;;;32.95;26.78;97280.47;5059473;28;20395;-83
2023/05/15 10:25:25;;;;;;;;;;;;;;;33.18;28.14;97277.19;5059404;28;20400;-83
2023/05/15 10:27:51;;;;;;;;;;;;;;;33.16;28.96;97279.00;5059474;28;20332;-83
2023/05/15 10:30:18;;;;;;;;;;;;;;;33.46;28.20;97285.72;5059334;28;20020;-83
2023/05/15 10:32:44;;;;;;;;;;;;;;;33.41;28.59;97277.97;5056778;28;20054;-83
2023/05/15 10:35:10;;;;;;;;;;;;;;;33.14;27.68;97282.34;5056040;28;19921;-82
2023/05/15 10:37:39;;;;;;;;;;;;;;;32.97;28.43;97292.13;5056705;28;20395;-82
2023/05/15 10:40:07;;;;;;;;;;;;;;;32.92;27.65;97299.34;5056172;28;20384;-83
2023/05/15 10:42:34;;;;;;;;;;;;;;;32.63;28.72;97302.59;5047105;28;19917;-81
2023/05/15 10:45:01;;;;;;;;;;;;;;;32.80;28.34;97292.06;5037564;28;20388;-82
2023/05/15 10:47:28;;;;;;;;;;;;;;;32.89;28.05;97297.50;5067926;28;19964;-82
2023/05/15 10:49:55;;;;;;;;;;;;;;;32.90;29.26;97301.16;5070135;28;20013;-84
2023/05/15 10:52:21;;;;;;;;;;;;;;;32.89;27.93;97303.19;5067251;28;19917;-83
2023/05/15 10:54:47;;;;;;;;;;;;;;;32.73;29.75;97299.03;5065041;28;19920;-84
2023/05/15 10:57:13;;;;;;;;;;;;;;;32.70;29.01;97296.41;5065556;28;19928;-84
2023/05/15 10:59:40;;;;;;;;;;;;;;;32.82;28.24;97289.47;5067405;28;19920;-83
2023/05/15 11:02:26;;;;;;;;;;;;;;;32.97;28.14;97284.38;5059439;28;20047;-83
2023/05/15 11:04:55;;;;;;;;;;;;;;;33.11;28.44;97283.38;5063879;28;19928;-84
2023/05/15 11:07:22;;;;;;;;;;;;;;;32.96;27.79;97290.53;5075049;28;19925;-84
2023/05/15 11:09:49;;;;;;;;;;;;;;;32.86;28.45;97280.72;5073957;28;19932;-84
2023/05/15 11:12:15;;;;;;;;;;;;;;;32.71;28.66;97283.78;5072774;28;20046;-84
2023/05/15 11:14:42;;;;;;;;;;;;;;;32.14;28.57;97281.16;5075496;28;20382;-84
2023/05/15 11:17:10;;;;;;;;;;;;;;;31.80;29.44;97277.34;5072969;28;19928;-84
2023/05/15 11:19:37;;;;;;;;;;;;;;;30.94;31.75;97271.94;5068033;28;19916;-83
2023/05/15 11:22:15;;;;;;;;;;;;;;;31.39;32.24;97279.56;5075603;28;20019;-83
2023/05/15 11:24:50;;;;;;;;;;;;;;;31.10;31.60;97279.84;5069245;28;19921;-83
2023/05/15 11:27:18;;;;;;;;;;;;;;;31.07;31.53;97272.31;5068846;28;19943;-83
2023/05/15 11:30:02;;;;;;;;;;;;;;;30.64;32.83;97267.72;5046184;28;20410;-83
2023/05/15 11:32:47;;;;;;;;;;;;;;;30.83;31.13;97265.34;5074812;28;19923;-83
2023/05/15 11:35:20;;;;;;;;;;;;;;;30.48;33.21;97271.16;5073950;28;20030;-82
2023/05/15 11:37:47;;;;;;;;;;;;;;;30.45;33.21;97266.47;5067132;28;19979;-82
2023/05/15 11:40:14;;;;;;;;;;;;;;;31.22;32.21;97264.47;5074388;28;19928;-83
2023/05/15 11:42:40;;;;;;;;;;;;;;;30.83;32.54;97266.09;5070146;28;19924;-83
2023/05/15 11:45:08;;;;;;;;;;;;;;;30.04;34.61;97268.47;5070883;28;19924;-83
2023/05/15 11:47:35;;;;;;;;;;;;;;;30.86;34.72;97270.00;5074147;28;19963;-83
2023/05/15 11:50:03;;;;;;;;;;;;;;;31.29;33.01;97271.75;5051938;28;19921;-83
2023/05/15 11:52:29;;;;;;;;;;;;;;;31.51;35.60;97271.94;5050469;28;19923;-84
2023/05/15 11:54:56;;;;;;;;;;;;;;;31.29;35.32;97266.06;5041290;28;19980;-83
2023/05/15 11:57:22;;;;;;;;;;;;;;;29.62;41.29;97259.59;5050427;28;19921;-83
2023/05/15 11:59:52;;;;;;;;;;;;;;;28.63;45.25;97274.34;5051946;28;19970;-83
2023/05/15 12:02:18;;;;;;;;;;;;;;;29.99;34.06;97277.69;5042601;28;19975;-83
2023/05/15 12:04:47;;;;;;;;;;;;;;;30.52;39.11;97272.50;5042031;28;19960;-83
2023/05/15 12:07:13;;;;;;;;;;;;;;;31.75;31.17;97261.03;5046894;28;19959;-82
2023/05/15 12:09:40;;;;;;;;;;;;;;;32.14;33.74;97260.53;5049306;28;19932;-82
2023/05/15 12:12:11;;;;;;;;;;;;;;;32.55;36.39;97253.22;5037844;28;20019;-82
2023/05/15 12:14:38;;;;;;;;;;;;;;;31.82;33.00;97252.06;5034742;28;19963;-82
2023/05/15 12:17:04;;;;;;;;;;;;;;;33.40;32.43;97242.25;5040782;28;19921;-81
2023/05/15 12:19:32;;;;;;;;;;;;;;;34.32;29.28;97239.00;5040528;28;19928;-82
2023/05/15 12:21:58;;;;;;;;;;;;;;;34.25;28.76;97241.63;5035469;28;19929;-82
2023/05/15 12:24:27;;;;;;;;;;;;;;;33.71;35.77;97232.69;5051291;28;19928;-82
2023/05/15 12:26:53;;;;;;;;;;;;;;;33.41;30.96;97241.75;5038345;28;20415;-83
2023/05/15 12:29:19;;;;;;;;;;;;;;;33.16;36.03;97250.53;5035284;28;19994;-83
2023/05/15 12:31:46;;;;;;;;;;;;;;;32.67;31.31;97237.75;5034183;28;20004;-83
2023/05/15 12:34:12;;;;;;;;;;;;;;;33.07;28.49;97245.84;5034042;28;19918;-84
2023/05/15 12:36:40;;;;;;;;;;;;;;;33.42;30.70;97248.22;5032381;28;19998;-83
2023/05/15 12:39:06;;;;;;;;;;;;;;;31.77;32.06;97235.75;5053832;28;20377;-83
2023/05/15 12:41:32;;;;;;;;;;;;;;;32.81;32.80;97225.38;5054200;28;19917;-83
2023/05/15 12:43:58;;;;;;;;;;;;;;;33.73;33.95;97222.31;5053676;28;19940;-83
2023/05/15 12:46:28;;;;;;;;;;;;;;;33.71;31.10;97215.59;5057771;28;20379;-83